Time;durP1;ratioP1;P1;durP2;ratioP2;P2;SDS_P1;SDS_P2;PMS_P1;PMS_P2;Temp;Humidity;BMP_temperature;BMP_pressure;BME280_temperature;BME280_humidity;BME280_pressure;Samples;Min_cycle;Max_cycle;Signal;HPM_P1;HPM_P2
2023/04/09 00:04:43;;;;;;;24.58;11.63;;;;;;;;;;10456310;28;20272;-78
2023/04/09 00:09:44;;;;;;;22.80;10.48;;;;;;;;;;10463214;28;20218;-79
2023/04/09 00:14:45;;;;;;;19.55;11.40;;;;;;;;;;10477427;28;20291;-78
2023/04/09 00:19:46;;;;;;;18.92;9.60;;;;;;;;;;10468630;28;20314;-77
2023/04/09 00:24:47;;;;;;;18.20;10.05;;;;;;;;;;10463998;28;20586;-79
2023/04/09 00:29:48;;;;;;;21.00;10.25;;;;;;;;;;10483322;28;20213;-78
2023/04/09 00:34:49;;;;;;;19.77;9.07;;;;;;;;;;10463736;28;20245;-78
2023/04/09 00:39:50;;;;;;;20.00;9.25;;;;;;;;;;10465394;28;20639;-79
2023/04/09 00:44:51;;;;;;;22.10;9.73;;;;;;;;;;10463295;28;20219;-79
2023/04/09 00:49:56;;;;;;;17.20;9.20;;;;;;;;;;10463020;28;20218;-78
2023/04/09 00:55:00;;;;;;;19.55;8.70;;;;;;;;;;10464520;28;20244;-78
2023/04/09 01:00:03;;;;;;;18.50;8.73;;;;;;;;;;10472754;28;20329;-78
2023/04/09 01:05:04;;;;;;;17.40;9.07;;;;;;;;;;10480722;28;21004;-76
2023/04/09 01:10:05;;;;;;;15.95;8.75;;;;;;;;;;10473536;28;20248;-76
2023/04/09 01:15:11;;;;;;;15.95;8.38;;;;;;;;;;10458254;28;20206;-78
2023/04/09 01:20:14;;;;;;;17.95;8.30;;;;;;;;;;10474142;28;20236;-78
2023/04/09 01:25:22;;;;;;;18.58;9.13;;;;;;;;;;10482832;28;20666;-78
2023/04/09 01:30:24;;;;;;;19.02;9.52;;;;;;;;;;10470436;28;20224;-79
2023/04/09 01:35:25;;;;;;;18.60;9.00;;;;;;;;;;10474675;28;20287;-76
2023/04/09 01:40:27;;;;;;;21.48;9.38;;;;;;;;;;10487618;28;20221;-80
2023/04/09 01:45:28;;;;;;;19.45;10.23;;;;;;;;;;10482458;28;20228;-79
2023/04/09 01:50:29;;;;;;;27.67;9.65;;;;;;;;;;10465409;28;20714;-79
2023/04/09 01:55:30;;;;;;;22.15;9.45;;;;;;;;;;10458185;28;20221;-80
2023/04/09 02:00:39;;;;;;;23.58;9.25;;;;;;;;;;10455073;28;20301;-79
2023/04/09 02:05:43;;;;;;;32.25;9.73;;;;;;;;;;10477838;28;20313;-78
2023/04/09 02:10:52;;;;;;;30.70;10.13;;;;;;;;;;10462449;28;20229;-79
2023/04/09 02:15:54;;;;;;;25.33;9.93;;;;;;;;;;10450290;28;20228;-79
2023/04/09 02:20:56;;;;;;;25.38;9.40;;;;;;;;;;10479483;28;20276;-79
2023/04/09 02:25:58;;;;;;;32.20;10.48;;;;;;;;;;10452950;28;21809;-79
2023/04/09 02:30:59;;;;;;;29.92;10.52;;;;;;;;;;10487087;28;20300;-79
2023/04/09 02:36:00;;;;;;;26.65;10.65;;;;;;;;;;10471347;28;20217;-79
2023/04/09 02:46:32;;;;;;;33.28;9.90;;;;;;;;;;10291305;23;20232;-83
2023/04/09 02:51:34;;;;;;;23.05;10.82;;;;;;;;;;10292049;28;20593;-82
2023/04/09 02:56:35;;;;;;;22.58;9.95;;;;;;;;;;10281817;28;20233;-81
2023/04/09 03:01:36;;;;;;;37.60;11.75;;;;;;;;;;10297629;28;20216;-82
2023/04/09 03:06:37;;;;;;;31.10;12.70;;;;;;;;;;10298693;28;20229;-83
2023/04/09 03:11:38;;;;;;;25.55;10.27;;;;;;;;;;10277750;28;20216;-81
2023/04/09 03:16:39;;;;;;;22.23;10.88;;;;;;;;;;10306156;28;20604;-82
2023/04/09 03:21:40;;;;;;;32.58;12.82;;;;;;;;;;10306503;28;20695;-82
2023/04/09 03:26:41;;;;;;;24.20;11.65;;;;;;;;;;10292584;28;20714;-83
2023/04/09 03:31:43;;;;;;;29.67;11.30;;;;;;;;;;10289820;28;20648;-82
2023/04/09 03:36:44;;;;;;;31.02;11.00;;;;;;;;;;10305766;28;20275;-82
2023/04/09 03:41:52;;;;;;;36.20;11.70;;;;;;;;;;10302141;28;20774;-82
2023/04/09 03:46:53;;;;;;;32.05;12.40;;;;;;;;;;10290432;28;20672;-82
2023/04/09 03:51:54;;;;;;;39.60;12.70;;;;;;;;;;10286807;28;20252;-81
2023/04/09 03:56:57;;;;;;;39.25;14.73;;;;;;;;;;10301112;28;20217;-82
2023/04/09 04:01:59;;;;;;;30.88;12.52;;;;;;;;;;10291793;28;20236;-82
2023/04/09 04:07:02;;;;;;;36.75;14.25;;;;;;;;;;10274944;28;20370;-83
2023/04/09 04:12:07;;;;;;;38.85;13.77;;;;;;;;;;10279197;28;20233;-82
2023/04/09 04:17:20;;;;;;;39.50;14.95;;;;;;;;;;10266211;28;20218;-85
2023/04/09 04:22:23;;;;;;;35.97;14.77;;;;;;;;;;10268416;28;20279;-83
2023/04/09 04:27:27;;;;;;;38.35;14.52;;;;;;;;;;10263146;28;20249;-83
2023/04/09 04:32:29;;;;;;;42.40;16.42;;;;;;;;;;10273009;28;20217;-83
2023/04/09 04:37:31;;;;;;;36.58;15.98;;;;;;;;;;10265166;28;20307;-83
2023/04/09 04:42:34;;;;;;;35.70;17.05;;;;;;;;;;10264265;28;20710;-83
2023/04/09 04:47:41;;;;;;;37.45;15.38;;;;;;;;;;10270808;28;20229;-84
2023/04/09 04:52:43;;;;;;;39.95;16.52;;;;;;;;;;10298128;28;20233;-83
2023/04/09 04:57:44;;;;;;;40.25;16.63;;;;;;;;;;10301767;28;20299;-82
2023/04/09 05:02:45;;;;;;;41.15;18.10;;;;;;;;;;10279284;28;20240;-82
2023/04/09 05:07:52;;;;;;;35.78;15.93;;;;;;;;;;10278787;28;20216;-80
2023/04/09 05:12:55;;;;;;;39.65;16.30;;;;;;;;;;10276743;28;21011;-82
2023/04/09 05:18:04;;;;;;;37.40;16.17;;;;;;;;;;10267024;28;20225;-78
2023/04/09 05:23:05;;;;;;;39.20;17.75;;;;;;;;;;10298503;28;20209;-79
2023/04/09 05:28:12;;;;;;;47.17;17.63;;;;;;;;;;10277307;28;20284;-79
2023/04/09 05:33:15;;;;;;;36.45;17.70;;;;;;;;;;10260874;28;20285;-81
2023/04/09 05:38:16;;;;;;;40.65;17.88;;;;;;;;;;10263301;28;20230;-80
2023/04/09 05:43:19;;;;;;;35.22;16.33;;;;;;;;;;10298289;28;21315;-80
2023/04/09 05:48:21;;;;;;;36.42;16.77;;;;;;;;;;10284121;28;20216;-81
2023/04/09 05:53:22;;;;;;;39.65;18.00;;;;;;;;;;10276850;28;20212;-80
2023/04/09 05:58:24;;;;;;;33.47;15.27;;;;;;;;;;10296107;28;20244;-81
2023/04/09 06:03:25;;;;;;;31.27;15.38;;;;;;;;;;10291970;28;20220;-83
2023/04/09 06:08:28;;;;;;;37.10;16.88;;;;;;;;;;10299479;28;20209;-80
2023/04/09 06:13:29;;;;;;;33.25;16.92;;;;;;;;;;10308484;28;20936;-82
2023/04/09 06:18:30;;;;;;;32.55;16.20;;;;;;;;;;10275239;28;20663;-81
2023/04/09 06:23:32;;;;;;;34.95;16.27;;;;;;;;;;10291980;28;20224;-79
2023/04/09 06:28:33;;;;;;;36.65;16.35;;;;;;;;;;10281112;28;20228;-80
2023/04/09 06:33:34;;;;;;;29.65;15.45;;;;;;;;;;10265070;28;20236;-83
2023/04/09 06:38:35;;;;;;;35.30;16.60;;;;;;;;;;10290233;28;20212;-79
2023/04/09 06:43:36;;;;;;;29.60;14.70;;;;;;;;;;10286353;28;20256;-82
2023/04/09 06:48:37;;;;;;;34.88;17.08;;;;;;;;;;10289571;28;20220;-82
2023/04/09 06:53:39;;;;;;;30.27;16.35;;;;;;;;;;10295301;28;20213;-80
2023/04/09 06:58:40;;;;;;;37.70;16.50;;;;;;;;;;10287534;28;20526;-80
2023/04/09 07:03:41;;;;;;;31.67;16.20;;;;;;;;;;10301453;28;20220;-80
2023/04/09 07:08:42;;;;;;;34.22;16.90;;;;;;;;;;10300906;28;20228;-80
2023/04/09 07:13:43;;;;;;;34.03;16.67;;;;;;;;;;10300899;28;20507;-80
2023/04/09 07:18:44;;;;;;;30.98;17.20;;;;;;;;;;10299847;28;20699;-80
2023/04/09 07:23:45;;;;;;;39.08;18.52;;;;;;;;;;10303816;28;20604;-80
2023/04/09 07:28:46;;;;;;;32.63;17.63;;;;;;;;;;10298786;28;20217;-79
2023/04/09 07:33:47;;;;;;;40.83;18.75;;;;;;;;;;10318956;28;20213;-80
2023/04/09 07:38:48;;;;;;;35.78;18.00;;;;;;;;;;10329665;28;20221;-82
2023/04/09 07:43:49;;;;;;;36.63;17.42;;;;;;;;;;10306477;28;20238;-82
2023/04/09 07:48:50;;;;;;;37.03;16.90;;;;;;;;;;10285640;28;20337;-80
2023/04/09 07:53:51;;;;;;;33.63;15.48;;;;;;;;;;10265101;28;21007;-81
2023/04/09 07:58:52;;;;;;;33.00;16.92;;;;;;;;;;10285013;28;20975;-81
2023/04/09 08:03:53;;;;;;;33.40;17.60;;;;;;;;;;10297699;28;20375;-80
2023/04/09 08:08:54;;;;;;;33.90;17.60;;;;;;;;;;10259809;28;20212;-79
2023/04/09 08:13:56;;;;;;;35.00;18.75;;;;;;;;;;10275604;28;20262;-80
2023/04/09 08:18:57;;;;;;;32.88;17.35;;;;;;;;;;10285953;28;20411;-83
2023/04/09 08:24:03;;;;;;;34.92;17.33;;;;;;;;;;10288529;28;20582;-80
2023/04/09 08:29:04;;;;;;;33.20;17.77;;;;;;;;;;10291922;28;20215;-80
2023/04/09 08:34:05;;;;;;;30.02;16.58;;;;;;;;;;10294549;28;20232;-81
2023/04/09 08:39:06;;;;;;;33.28;14.88;;;;;;;;;;10280391;28;20618;-80
2023/04/09 08:44:07;;;;;;;35.90;17.25;;;;;;;;;;10267268;28;20220;-82
2023/04/09 08:49:09;;;;;;;29.55;16.65;;;;;;;;;;10289270;28;20263;-82
2023/04/09 08:54:14;;;;;;;36.50;17.63;;;;;;;;;;10289064;28;20221;-82
2023/04/09 08:59:17;;;;;;;31.55;17.15;;;;;;;;;;10321881;23;20318;-78
2023/04/09 09:04:48;;;;;;;27.35;15.35;;;;;;;;;;10261067;28;20221;-79
2023/04/09 09:10:04;;;;;;;;;;;;;;;;;;;;;
2023/04/09 09:15:27;;;;;;;30.95;16.17;;;;;;;;;;10247327;28;20317;-81
2023/04/09 09:20:28;;;;;;;34.42;17.15;;;;;;;;;;10263251;28;20214;-80
2023/04/09 09:25:30;;;;;;;28.90;16.73;;;;;;;;;;10268855;28;20209;-83
2023/04/09 09:30:33;;;;;;;28.10;16.65;;;;;;;;;;10265957;28;20221;-80
2023/04/09 09:35:53;;;;;;;29.25;16.70;;;;;;;;;;10288156;28;20579;-80
2023/04/09 09:40:54;;;;;;;30.52;17.55;;;;;;;;;;10271813;28;20321;-78
2023/04/09 09:45:55;;;;;;;28.52;16.77;;;;;;;;;;10274675;28;20216;-80
2023/04/09 09:51:00;;;;;;;28.08;15.85;;;;;;;;;;10279066;28;20217;-79
2023/04/09 09:56:04;;;;;;;32.38;18.17;;;;;;;;;;10261459;28;20265;-81
2023/04/09 10:01:10;;;;;;;32.55;18.40;;;;;;;;;;10304825;28;20852;-81
2023/04/09 10:06:11;;;;;;;31.73;18.48;;;;;;;;;;10269074;28;20233;-80
2023/04/09 10:11:13;;;;;;;26.42;17.17;;;;;;;;;;10267841;28;20226;-80
2023/04/09 10:16:15;;;;;;;30.20;17.60;;;;;;;;;;10261347;28;20229;-82
2023/04/09 10:21:25;;;;;;;25.75;16.02;;;;;;;;;;10254568;28;20273;-82
2023/04/09 10:26:26;;;;;;;22.50;15.05;;;;;;;;;;10281056;28;20256;-80
2023/04/09 10:31:27;;;;;;;23.33;15.18;;;;;;;;;;10266505;28;20291;-81
2023/04/09 10:36:30;;;;;;;26.77;15.93;;;;;;;;;;10279404;28;20222;-78
2023/04/09 10:41:33;;;;;;;21.15;13.38;;;;;;;;;;10247635;28;20580;-80
2023/04/09 10:46:35;;;;;;;25.05;15.93;;;;;;;;;;10263472;28;20276;-79
2023/04/09 10:51:38;;;;;;;26.90;15.70;;;;;;;;;;10262559;28;20237;-80
2023/04/09 10:56:39;;;;;;;22.83;15.30;;;;;;;;;;10283329;28;20265;-79
2023/04/09 11:01:40;;;;;;;22.80;15.48;;;;;;;;;;10247053;28;20605;-80
2023/04/09 11:06:42;;;;;;;24.20;14.82;;;;;;;;;;10242952;28;20222;-81
2023/04/09 11:11:43;;;;;;;22.42;15.13;;;;;;;;;;10269100;28;20245;-81
2023/04/09 11:16:46;;;;;;;22.27;14.95;;;;;;;;;;10252126;28;20284;-80
2023/04/09 11:21:51;;;;;;;22.73;14.90;;;;;;;;;;10258920;28;20221;-80
2023/04/09 11:26:55;;;;;;;25.83;16.67;;;;;;;;;;10264971;28;20226;-81
2023/04/09 11:31:56;;;;;;;22.23;15.43;;;;;;;;;;10265692;28;20313;-79
2023/04/09 11:36:58;;;;;;;24.90;15.20;;;;;;;;;;10223390;28;20754;-79
2023/04/09 11:41:59;;;;;;;22.25;14.65;;;;;;;;;;10251858;28;20512;-77
2023/04/09 11:47:00;;;;;;;21.85;14.95;;;;;;;;;;10236915;28;21001;-78
2023/04/09 11:52:02;;;;;;;23.05;14.57;;;;;;;;;;10248844;28;20221;-79
2023/04/09 11:57:04;;;;;;;23.30;15.93;;;;;;;;;;10248050;28;20686;-76
2023/04/09 12:02:06;;;;;;;23.20;15.55;;;;;;;;;;10243812;28;20243;-77
2023/04/09 12:07:10;;;;;;;16.95;11.88;;;;;;;;;;10249343;28;20221;-78
2023/04/09 12:12:11;;;;;;;19.63;13.50;;;;;;;;;;10255763;28;20245;-76
2023/04/09 12:17:12;;;;;;;20.45;13.60;;;;;;;;;;10256906;28;20312;-76
2023/04/09 12:22:13;;;;;;;19.15;13.95;;;;;;;;;;10235976;28;20224;-75
2023/04/09 12:27:14;;;;;;;22.10;15.18;;;;;;;;;;10245986;28;20225;-77
2023/04/09 12:32:15;;;;;;;20.98;14.73;;;;;;;;;;10248938;28;20831;-77
2023/04/09 12:37:16;;;;;;;19.90;14.07;;;;;;;;;;10249121;28;20244;-78
2023/04/09 12:42:17;;;;;;;20.15;13.70;;;;;;;;;;10249995;28;20731;-73
2023/04/09 12:47:19;;;;;;;20.67;14.73;;;;;;;;;;10250432;28;20284;-76
2023/04/09 12:52:21;;;;;;;19.15;14.05;;;;;;;;;;10250631;28;20229;-77
2023/04/09 12:57:22;;;;;;;18.85;13.82;;;;;;;;;;10237906;28;20221;-76
2023/04/09 13:02:23;;;;;;;17.13;13.38;;;;;;;;;;10234248;28;20217;-76
2023/04/09 13:07:28;;;;;;;16.45;13.27;;;;;;;;;;10255982;28;20428;-76
2023/04/09 13:12:29;;;;;;;16.48;12.15;;;;;;;;;;10254104;28;20225;-75
2023/04/09 13:17:30;;;;;;;17.67;12.38;;;;;;;;;;10258132;28;20226;-75
2023/04/09 13:22:31;;;;;;;16.15;11.55;;;;;;;;;;10241483;28;20244;-76
2023/04/09 13:27:32;;;;;;;17.30;12.07;;;;;;;;;;10243549;28;20243;-78
2023/04/09 13:32:33;;;;;;;16.38;10.93;;;;;;;;;;10239794;28;20221;-76
2023/04/09 13:37:34;;;;;;;15.48;11.02;;;;;;;;;;10241831;28;20219;-77
2023/04/09 13:42:36;;;;;;;17.15;11.70;;;;;;;;;;10250749;28;20221;-76
2023/04/09 13:47:37;;;;;;;9.88;8.48;;;;;;;;;;10232535;28;20809;-77
2023/04/09 13:52:38;;;;;;;9.27;8.25;;;;;;;;;;10233314;28;20221;-75
2023/04/09 13:57:39;;;;;;;9.77;7.05;;;;;;;;;;10251643;28;20225;-77
2023/04/09 14:02:40;;;;;;;12.00;8.32;;;;;;;;;;10261659;28;20266;-77
2023/04/09 14:07:41;;;;;;;10.07;8.88;;;;;;;;;;10247155;28;20225;-78
2023/04/09 14:12:43;;;;;;;9.52;7.93;;;;;;;;;;10254435;28;20308;-77
2023/04/09 14:17:44;;;;;;;12.15;9.25;;;;;;;;;;10257348;28;20610;-77
2023/04/09 14:22:48;;;;;;;9.25;8.32;;;;;;;;;;10236764;28;20221;-77
2023/04/09 14:27:49;;;;;;;11.35;8.82;;;;;;;;;;10280082;28;20245;-78
2023/04/09 14:32:51;;;;;;;10.02;9.02;;;;;;;;;;10278618;28;20866;-77
2023/04/09 14:37:52;;;;;;;9.05;7.90;;;;;;;;;;10285230;28;20771;-77
2023/04/09 14:42:53;;;;;;;7.88;7.07;;;;;;;;;;10238610;28;20236;-75
2023/04/09 14:47:54;;;;;;;5.63;5.15;;;;;;;;;;10246380;28;20224;-76
2023/04/09 14:52:55;;;;;;;7.00;6.40;;;;;;;;;;10265613;28;20233;-78
2023/04/09 14:57:56;;;;;;;6.70;6.00;;;;;;;;;;10235261;28;20276;-79
2023/04/09 15:02:57;;;;;;;8.50;7.60;;;;;;;;;;10247892;28;20836;-77
2023/04/09 15:07:58;;;;;;;10.20;7.60;;;;;;;;;;10250752;28;20226;-78
2023/04/09 15:12:59;;;;;;;8.93;6.40;;;;;;;;;;10250095;28;20233;-78
2023/04/09 15:18:04;;;;;;;10.27;7.47;;;;;;;;;;10249396;28;20299;-80
2023/04/09 15:23:05;;;;;;;8.35;6.68;;;;;;;;;;10250723;28;20228;-79
2023/04/09 15:28:06;;;;;;;9.05;7.43;;;;;;;;;;10260992;28;20221;-79
2023/04/09 15:33:07;;;;;;;10.77;8.43;;;;;;;;;;10258665;28;20267;-81
2023/04/09 15:38:08;;;;;;;13.18;9.35;;;;;;;;;;10249390;28;20245;-79
2023/04/09 15:43:09;;;;;;;11.20;8.57;;;;;;;;;;10252657;28;20675;-81
2023/04/09 15:48:10;;;;;;;7.95;6.78;;;;;;;;;;10257732;28;20248;-80
2023/04/09 15:53:13;;;;;;;9.60;7.95;;;;;;;;;;10260922;28;20273;-82
2023/04/09 15:58:16;;;;;;;10.63;7.30;;;;;;;;;;10293808;28;20240;-80
2023/04/09 16:03:19;;;;;;;11.43;8.68;;;;;;;;;;10241145;28;20233;-81
2023/04/09 16:08:20;;;;;;;13.52;8.43;;;;;;;;;;10261177;28;20221;-78
2023/04/09 16:13:21;;;;;;;9.00;7.30;;;;;;;;;;10232460;28;20225;-83
2023/04/09 16:18:22;;;;;;;9.68;7.63;;;;;;;;;;10234518;28;20226;-82
2023/04/09 16:23:24;;;;;;;9.07;7.72;;;;;;;;;;10247403;28;20309;-84
2023/04/09 16:28:25;;;;;;;10.10;6.90;;;;;;;;;;10269765;28;20912;-79
2023/04/09 16:33:26;;;;;;;7.90;6.75;;;;;;;;;;10259303;28;20252;-75
2023/04/09 16:38:29;;;;;;;8.07;6.63;;;;;;;;;;10244577;28;20232;-79
2023/04/09 16:43:30;;;;;;;9.95;7.43;;;;;;;;;;10243555;28;20232;-78
2023/04/09 16:48:32;;;;;;;8.57;7.07;;;;;;;;;;10256168;28;20264;-78
2023/04/09 16:53:34;;;;;;;6.85;6.25;;;;;;;;;;10229211;28;21092;-78
2023/04/09 16:58:35;;;;;;;8.02;6.25;;;;;;;;;;10249297;28;20728;-78
2023/04/09 17:03:36;;;;;;;7.40;6.00;;;;;;;;;;10227152;28;20292;-78
2023/04/09 17:08:37;;;;;;;6.70;6.03;;;;;;;;;;10232546;28;20224;-81
2023/04/09 17:13:38;;;;;;;6.80;6.03;;;;;;;;;;10227488;28;20673;-81
2023/04/09 17:18:39;;;;;;;7.18;5.72;;;;;;;;;;10237413;28;20218;-78
2023/04/09 17:23:41;;;;;;;5.93;5.43;;;;;;;;;;10240498;28;20282;-77
2023/04/09 17:28:42;;;;;;;6.65;5.90;;;;;;;;;;10273295;28;20213;-79
2023/04/09 17:33:47;;;;;;;7.43;6.55;;;;;;;;;;10246583;28;20923;-81
2023/04/09 17:38:48;;;;;;;9.55;6.97;;;;;;;;;;10266901;28;23899;-79
2023/04/09 17:43:49;;;;;;;10.48;7.55;;;;;;;;;;10256339;28;20683;-80
2023/04/09 17:48:51;;;;;;;8.63;7.70;;;;;;;;;;10258956;28;20232;-79
2023/04/09 17:53:53;;;;;;;12.80;9.50;;;;;;;;;;10283002;28;20701;-79
2023/04/09 17:58:54;;;;;;;12.52;9.48;;;;;;;;;;10288526;28;20225;-79
2023/04/09 18:03:55;;;;;;;18.42;10.57;;;;;;;;;;10280477;28;20227;-83
2023/04/09 18:08:56;;;;;;;12.88;9.60;;;;;;;;;;10254130;28;20264;-80
2023/04/09 18:13:57;;;;;;;13.50;9.85;;;;;;;;;;10281436;28;20221;-80
2023/04/09 18:18:58;;;;;;;14.30;10.25;;;;;;;;;;10274573;28;20229;-84
2023/04/09 18:23:59;;;;;;;13.77;10.70;;;;;;;;;;10257375;28;20226;-80
2023/04/09 18:29:00;;;;;;;17.80;11.48;;;;;;;;;;10274954;28;20233;-82
2023/04/09 18:34:02;;;;;;;22.48;13.98;;;;;;;;;;10224381;28;20261;-81
2023/04/09 18:39:03;;;;;;;19.70;13.38;;;;;;;;;;10259441;28;20214;-81
2023/04/09 18:44:07;;;;;;;25.48;16.80;;;;;;;;;;10268932;28;20724;-79
2023/04/09 18:49:08;;;;;;;32.63;19.98;;;;;;;;;;10264368;28;20213;-77
2023/04/09 18:54:09;;;;;;;22.30;15.05;;;;;;;;;;10275256;28;20280;-78
2023/04/09 18:59:10;;;;;;;21.42;14.75;;;;;;;;;;10251975;28;20320;-80
2023/04/09 19:04:11;;;;;;;28.35;16.92;;;;;;;;;;10261661;28;20224;-80
2023/04/09 19:09:12;;;;;;;34.97;20.30;;;;;;;;;;10243274;28;20225;-80
2023/04/09 19:14:13;;;;;;;39.00;23.33;;;;;;;;;;10269264;28;20217;-80
2023/04/09 19:19:14;;;;;;;44.17;25.70;;;;;;;;;;10242065;28;20222;-81
2023/04/09 19:24:15;;;;;;;40.67;23.33;;;;;;;;;;10274647;28;20222;-81
2023/04/09 19:29:16;;;;;;;34.72;20.52;;;;;;;;;;10268385;28;20217;-81
2023/04/09 19:34:17;;;;;;;24.75;16.13;;;;;;;;;;10254762;28;20253;-79
2023/04/09 19:39:18;;;;;;;20.95;13.35;;;;;;;;;;10262953;28;20217;-79
2023/04/09 19:44:19;;;;;;;29.75;16.65;;;;;;;;;;10275513;28;20264;-80
2023/04/09 19:49:20;;;;;;;21.77;12.93;;;;;;;;;;10270800;28;20217;-79
2023/04/09 19:54:22;;;;;;;23.42;14.00;;;;;;;;;;10253962;28;20700;-79
2023/04/09 19:59:23;;;;;;;22.85;14.20;;;;;;;;;;10261851;28;20768;-80
2023/04/09 20:04:24;;;;;;;29.20;16.30;;;;;;;;;;10260746;28;20220;-79
2023/04/09 20:09:27;;;;;;;22.60;12.50;;;;;;;;;;10243448;28;20272;-79
2023/04/09 20:14:28;;;;;;;18.30;12.00;;;;;;;;;;10277555;28;20214;-80
2023/04/09 20:19:30;;;;;;;20.20;11.50;;;;;;;;;;10277893;28;20255;-81
2023/04/09 20:24:32;;;;;;;19.42;11.85;;;;;;;;;;10289823;28;20290;-80
2023/04/09 20:29:33;;;;;;;19.33;11.63;;;;;;;;;;10281764;28;20321;-79
2023/04/09 20:34:34;;;;;;;17.92;10.88;;;;;;;;;;10239539;28;20209;-80
2023/04/09 20:39:35;;;;;;;15.48;10.43;;;;;;;;;;10244383;28;20222;-79
2023/04/09 20:44:37;;;;;;;15.57;9.75;;;;;;;;;;10256384;28;20222;-78
2023/04/09 20:49:38;;;;;;;16.90;9.43;;;;;;;;;;10250200;28;20225;-78
2023/04/09 20:54:39;;;;;;;16.98;10.50;;;;;;;;;;10247502;28;20344;-80
2023/04/09 20:59:40;;;;;;;16.92;10.77;;;;;;;;;;10216617;28;20727;-78
2023/04/09 21:04:41;;;;;;;13.43;8.85;;;;;;;;;;10230142;28;20222;-78
2023/04/09 21:09:42;;;;;;;16.92;9.93;;;;;;;;;;10251645;28;20703;-81
2023/04/09 21:14:43;;;;;;;15.18;9.38;;;;;;;;;;10263122;28;20269;-78
2023/04/09 21:19:44;;;;;;;17.02;10.55;;;;;;;;;;10258899;28;20229;-79
2023/04/09 21:24:45;;;;;;;17.55;10.35;;;;;;;;;;10266775;28;20230;-78
2023/04/09 21:29:46;;;;;;;16.77;8.98;;;;;;;;;;10249861;28;20221;-79
2023/04/09 21:34:47;;;;;;;15.45;10.13;;;;;;;;;;10266231;28;20600;-78
2023/04/09 21:39:48;;;;;;;17.77;9.70;;;;;;;;;;10264234;28;20233;-79
2023/04/09 21:44:50;;;;;;;16.65;9.10;;;;;;;;;;10271892;28;20264;-78
2023/04/09 21:49:51;;;;;;;16.40;9.95;;;;;;;;;;10257641;28;20229;-79
2023/04/09 21:54:52;;;;;;;13.82;9.40;;;;;;;;;;10252946;28;20218;-78
2023/04/09 21:59:53;;;;;;;16.25;9.85;;;;;;;;;;10276705;28;20221;-79
2023/04/09 22:04:54;;;;;;;26.60;14.68;;;;;;;;;;10262433;28;20233;-79
2023/04/09 22:09:57;;;;;;;20.23;11.82;;;;;;;;;;10282142;28;20244;-78
2023/04/09 22:14:57;;;;;;;37.47;20.00;;;;;;;;;;10264286;28;20217;-79
2023/04/09 22:19:59;;;;;;;28.27;14.95;;;;;;;;;;10250726;28;20229;-80
2023/04/09 22:24:59;;;;;;;20.20;11.48;;;;;;;;;;10266016;28;20229;-79
2023/04/09 22:30:00;;;;;;;18.75;10.82;;;;;;;;;;10268640;28;20225;-79
2023/04/09 22:35:01;;;;;;;17.90;9.93;;;;;;;;;;10253108;28;20221;-79
2023/04/09 22:40:02;;;;;;;17.50;9.93;;;;;;;;;;10263235;28;20228;-78
2023/04/09 22:45:04;;;;;;;16.10;9.13;;;;;;;;;;10249758;28;20248;-80
2023/04/09 22:50:05;;;;;;;13.82;9.02;;;;;;;;;;10261479;28;20218;-79
2023/04/09 22:55:08;;;;;;;14.40;8.27;;;;;;;;;;10261669;28;20297;-78
2023/04/09 23:00:10;;;;;;;18.90;9.10;;;;;;;;;;10263672;28;20308;-77
2023/04/09 23:05:11;;;;;;;14.63;8.75;;;;;;;;;;10272553;28;20687;-78
2023/04/09 23:10:16;;;;;;;19.25;9.65;;;;;;;;;;10235498;28;20224;-78
2023/04/09 23:15:17;;;;;;;12.73;8.70;;;;;;;;;;10270386;28;20249;-77
2023/04/09 23:20:19;;;;;;;13.55;8.65;;;;;;;;;;10271133;28;20202;-79
2023/04/09 23:25:23;;;;;;;14.48;8.80;;;;;;;;;;10245443;28;20273;-78
2023/04/09 23:30:24;;;;;;;14.13;8.68;;;;;;;;;;10254292;28;20731;-78
2023/04/09 23:35:25;;;;;;;14.77;7.88;;;;;;;;;;10260582;28;20224;-78
2023/04/09 23:40:26;;;;;;;12.23;8.45;;;;;;;;;;10262986;28;20288;-77
2023/04/09 23:45:27;;;;;;;11.20;7.20;;;;;;;;;;10260967;28;20634;-79
2023/04/09 23:50:29;;;;;;;11.52;7.47;;;;;;;;;;10265280;28;20579;-79
2023/04/09 23:55:32;;;;;;;15.27;8.90;;;;;;;;;;10265208;28;20239;-79
